Glen Arbor, Michigan
Current Conditions -  °F | °C
As of 5:11 PM on Sunday 23 Nov 2014 (Local Time) from KFKS Reporting Station
Drizzle Drizzle  
Wind Chill: 45°   Ceiling: 1300
Heat Index: 48°   Visibility: 7mi
Dew Point: 47°   Wind: 8mph
Humidity: 95%   Direction: 150°SSE
Pressure: 29.52"   Gusts: NA
Location:  44.9°N, 85.99°W
Report Text: KFKS 232211Z AUTO 15007KT 7SM -DZ SCT008 OVC013 09/08 A2952 RMK AO2 T00900083
Loading
Personal Weather Stations






























Interactive Weather Map New forecast layout! Learn more

10-Day Weather Forecast

Advertisements
Track Severe Weather on mobile